sensor_id;sensor_type;location;lat;lon;timestamp;pressure;altitude;pressure_sealevel;temperature;humidity
34482;BME280;20720;48.886;9.388;2023-09-19T00:02:17;97970.72;;;22.08;100.00
34482;BME280;20720;48.886;9.388;2023-09-19T00:04:43;97973.75;;;22.54;100.00
34482;BME280;20720;48.886;9.388;2023-09-19T00:07:09;97979.97;;;22.20;100.00
34482;BME280;20720;48.886;9.388;2023-09-19T00:09:34;97991.38;;;22.02;100.00
34482;BME280;20720;48.886;9.388;2023-09-19T00:12:06;97980.88;;;21.33;100.00
34482;BME280;20720;48.886;9.388;2023-09-19T00:14:34;97989.16;;;22.09;100.00
34482;BME280;20720;48.886;9.388;2023-09-19T00:17:01;97987.16;;;22.25;100.00
34482;BME280;20720;48.886;9.388;2023-09-19T00:19:31;97989.41;;;22.13;100.00
34482;BME280;20720;48.886;9.388;2023-09-19T00:21:57;98000.09;;;21.79;100.00
34482;BME280;20720;48.886;9.388;2023-09-19T00:24:23;98003.91;;;21.68;100.00
34482;BME280;20720;48.886;9.388;2023-09-19T00:26:48;98004.56;;;22.22;100.00
34482;BME280;20720;48.886;9.388;2023-09-19T00:29:13;98008.38;;;22.45;100.00
34482;BME280;20720;48.886;9.388;2023-09-19T00:31:43;98007.50;;;21.53;100.00
34482;BME280;20720;48.886;9.388;2023-09-19T00:34:08;98018.81;;;21.35;100.00
34482;BME280;20720;48.886;9.388;2023-09-19T00:36:38;98012.75;;;21.20;100.00
34482;BME280;20720;48.886;9.388;2023-09-19T00:39:05;98021.25;;;21.76;100.00
34482;BME280;20720;48.886;9.388;2023-09-19T00:41:33;98014.34;;;21.21;100.00
34482;BME280;20720;48.886;9.388;2023-09-19T00:44:00;98012.06;;;20.84;100.00
34482;BME280;20720;48.886;9.388;2023-09-19T00:46:27;98010.25;;;20.70;100.00
34482;BME280;20720;48.886;9.388;2023-09-19T00:48:52;98007.88;;;20.53;100.00
34482;BME280;20720;48.886;9.388;2023-09-19T00:51:17;98004.50;;;21.11;100.00
34482;BME280;20720;48.886;9.388;2023-09-19T00:53:46;97994.81;;;21.25;100.00
34482;BME280;20720;48.886;9.388;2023-09-19T00:56:12;98006.81;;;20.49;100.00
34482;BME280;20720;48.886;9.388;2023-09-19T00:58:38;98011.00;;;20.85;100.00
34482;BME280;20720;48.886;9.388;2023-09-19T01:01:04;98015.25;;;20.91;100.00
34482;BME280;20720;48.886;9.388;2023-09-19T01:03:33;98016.34;;;21.49;100.00
34482;BME280;20720;48.886;9.388;2023-09-19T01:05:59;98025.75;;;21.41;100.00
34482;BME280;20720;48.886;9.388;2023-09-19T01:08:25;98013.31;;;22.04;100.00
34482;BME280;20720;48.886;9.388;2023-09-19T01:11:00;98018.28;;;21.82;100.00
34482;BME280;20720;48.886;9.388;2023-09-19T01:13:35;98022.50;;;21.49;100.00
34482;BME280;20720;48.886;9.388;2023-09-19T01:18:52;98027.84;;;20.76;100.00
34482;BME280;20720;48.886;9.388;2023-09-19T01:21:29;98027.31;;;20.69;100.00
34482;BME280;20720;48.886;9.388;2023-09-19T01:27:36;98033.50;;;20.44;100.00
34482;BME280;20720;48.886;9.388;2023-09-19T01:30:17;98027.66;;;21.75;100.00
34482;BME280;20720;48.886;9.388;2023-09-19T01:32:51;98031.91;;;20.58;100.00
34482;BME280;20720;48.886;9.388;2023-09-19T01:35:17;98027.88;;;20.66;100.00
34482;BME280;20720;48.886;9.388;2023-09-19T01:37:44;98030.78;;;20.79;100.00
34482;BME280;20720;48.886;9.388;2023-09-19T01:40:12;98036.81;;;21.15;100.00
34482;BME280;20720;48.886;9.388;2023-09-19T01:43:01;98040.38;;;20.80;100.00
34482;BME280;20720;48.886;9.388;2023-09-19T01:45:41;98048.38;;;21.00;100.00
34482;BME280;20720;48.886;9.388;2023-09-19T01:48:42;98043.13;;;20.55;100.00
34482;BME280;20720;48.886;9.388;2023-09-19T01:51:14;98041.97;;;20.91;100.00
34482;BME280;20720;48.886;9.388;2023-09-19T01:53:53;98033.50;;;20.59;100.00
34482;BME280;20720;48.886;9.388;2023-09-19T01:56:34;98041.28;;;20.35;100.00
34482;BME280;20720;48.886;9.388;2023-09-19T01:59:07;98044.38;;;20.93;100.00
34482;BME280;20720;48.886;9.388;2023-09-19T02:01:36;98036.59;;;21.06;100.00
34482;BME280;20720;48.886;9.388;2023-09-19T02:04:03;98040.94;;;20.77;100.00
34482;BME280;20720;48.886;9.388;2023-09-19T02:06:29;98049.72;;;20.93;100.00
34482;BME280;20720;48.886;9.388;2023-09-19T02:08:54;98048.34;;;21.05;100.00
34482;BME280;20720;48.886;9.388;2023-09-19T02:11:20;98055.38;;;20.56;100.00
34482;BME280;20720;48.886;9.388;2023-09-19T02:13:45;98058.19;;;21.15;100.00
34482;BME280;20720;48.886;9.388;2023-09-19T02:16:11;98056.38;;;20.90;100.00
34482;BME280;20720;48.886;9.388;2023-09-19T02:18:37;98057.59;;;21.28;100.00
34482;BME280;20720;48.886;9.388;2023-09-19T02:21:04;98061.22;;;20.73;100.00
34482;BME280;20720;48.886;9.388;2023-09-19T02:23:32;98056.41;;;21.00;100.00
34482;BME280;20720;48.886;9.388;2023-09-19T02:25:58;98066.84;;;20.61;100.00
34482;BME280;20720;48.886;9.388;2023-09-19T02:28:28;98062.31;;;20.67;100.00
34482;BME280;20720;48.886;9.388;2023-09-19T02:30:55;98067.66;;;20.52;100.00
34482;BME280;20720;48.886;9.388;2023-09-19T02:33:21;98070.19;;;21.22;100.00
34482;BME280;20720;48.886;9.388;2023-09-19T02:35:46;98069.56;;;21.45;100.00
34482;BME280;20720;48.886;9.388;2023-09-19T02:38:12;98074.22;;;21.25;100.00
34482;BME280;20720;48.886;9.388;2023-09-19T02:40:38;98071.28;;;21.21;100.00
34482;BME280;20720;48.886;9.388;2023-09-19T02:43:03;98072.00;;;21.37;100.00
34482;BME280;20720;48.886;9.388;2023-09-19T02:45:30;98068.75;;;21.45;100.00
34482;BME280;20720;48.886;9.388;2023-09-19T02:47:55;98077.22;;;21.03;100.00
34482;BME280;20720;48.886;9.388;2023-09-19T02:50:21;98077.03;;;20.19;100.00
34482;BME280;20720;48.886;9.388;2023-09-19T02:52:47;98080.16;;;21.02;100.00
34482;BME280;20720;48.886;9.388;2023-09-19T02:55:14;98082.28;;;21.10;100.00
34482;BME280;20720;48.886;9.388;2023-09-19T02:57:46;98082.34;;;20.19;100.00
34482;BME280;20720;48.886;9.388;2023-09-19T03:00:12;98087.97;;;20.33;100.00
34482;BME280;20720;48.886;9.388;2023-09-19T03:02:37;98083.13;;;20.75;100.00
34482;BME280;20720;48.886;9.388;2023-09-19T03:05:05;98092.72;;;20.86;100.00
34482;BME280;20720;48.886;9.388;2023-09-19T03:07:31;98095.97;;;20.58;100.00
34482;BME280;20720;48.886;9.388;2023-09-19T03:09:57;98087.97;;;20.48;100.00
34482;BME280;20720;48.886;9.388;2023-09-19T03:12:22;98093.78;;;20.90;100.00
34482;BME280;20720;48.886;9.388;2023-09-19T03:14:47;98090.03;;;20.86;100.00
34482;BME280;20720;48.886;9.388;2023-09-19T03:17:13;98102.09;;;20.74;100.00
34482;BME280;20720;48.886;9.388;2023-09-19T03:19:40;98093.56;;;20.56;100.00
34482;BME280;20720;48.886;9.388;2023-09-19T03:22:05;98109.06;;;20.24;100.00
34482;BME280;20720;48.886;9.388;2023-09-19T03:24:30;98097.53;;;20.79;100.00
34482;BME280;20720;48.886;9.388;2023-09-19T03:26:57;98094.09;;;20.48;100.00
34482;BME280;20720;48.886;9.388;2023-09-19T03:29:22;98092.63;;;21.26;100.00
34482;BME280;20720;48.886;9.388;2023-09-19T03:31:47;98094.91;;;20.74;100.00
34482;BME280;20720;48.886;9.388;2023-09-19T03:34:13;98088.78;;;20.43;100.00
34482;BME280;20720;48.886;9.388;2023-09-19T03:36:38;98085.66;;;21.35;100.00
34482;BME280;20720;48.886;9.388;2023-09-19T03:39:04;98091.03;;;21.30;100.00
34482;BME280;20720;48.886;9.388;2023-09-19T03:41:31;98087.97;;;21.57;100.00
34482;BME280;20720;48.886;9.388;2023-09-19T03:43:56;98098.28;;;21.84;100.00
34482;BME280;20720;48.886;9.388;2023-09-19T03:46:22;98094.41;;;21.51;100.00
34482;BME280;20720;48.886;9.388;2023-09-19T03:48:47;98106.31;;;21.84;100.00
34482;BME280;20720;48.886;9.388;2023-09-19T03:51:12;98098.31;;;21.00;100.00
34482;BME280;20720;48.886;9.388;2023-09-19T03:53:37;98105.44;;;21.34;100.00
34482;BME280;20720;48.886;9.388;2023-09-19T03:56:03;98107.88;;;21.16;100.00
34482;BME280;20720;48.886;9.388;2023-09-19T03:58:28;98109.31;;;20.58;100.00
34482;BME280;20720;48.886;9.388;2023-09-19T04:00:57;98102.03;;;21.19;100.00
34482;BME280;20720;48.886;9.388;2023-09-19T04:03:23;98112.53;;;20.55;100.00
34482;BME280;20720;48.886;9.388;2023-09-19T04:05:50;98100.75;;;20.71;100.00
34482;BME280;20720;48.886;9.388;2023-09-19T04:08:15;98106.63;;;20.78;100.00
34482;BME280;20720;48.886;9.388;2023-09-19T04:10:44;98094.03;;;19.83;100.00
34482;BME280;20720;48.886;9.388;2023-09-19T04:13:10;98087.44;;;20.26;100.00
34482;BME280;20720;48.886;9.388;2023-09-19T04:15:36;98072.88;;;19.46;100.00
34482;BME280;20720;48.886;9.388;2023-09-19T04:18:03;98066.53;;;19.73;100.00
34482;BME280;20720;48.886;9.388;2023-09-19T04:20:28;98076.78;;;20.36;100.00
34482;BME280;20720;48.886;9.388;2023-09-19T04:22:53;98073.75;;;19.87;100.00
34482;BME280;20720;48.886;9.388;2023-09-19T04:25:19;98060.97;;;19.79;100.00
34482;BME280;20720;48.886;9.388;2023-09-19T04:27:45;98082.09;;;20.46;100.00
34482;BME280;20720;48.886;9.388;2023-09-19T04:30:11;98075.97;;;20.35;100.00
34482;BME280;20720;48.886;9.388;2023-09-19T04:32:38;98078.06;;;20.08;100.00
34482;BME280;20720;48.886;9.388;2023-09-19T04:35:08;98089.03;;;20.57;100.00
34482;BME280;20720;48.886;9.388;2023-09-19T04:37:40;98102.63;;;20.76;100.00
34482;BME280;20720;48.886;9.388;2023-09-19T04:40:10;98105.03;;;20.77;100.00
34482;BME280;20720;48.886;9.388;2023-09-19T04:42:40;98090.91;;;20.41;100.00
34482;BME280;20720;48.886;9.388;2023-09-19T04:45:06;98110.59;;;20.96;100.00
34482;BME280;20720;48.886;9.388;2023-09-19T04:47:32;98104.50;;;20.70;100.00
34482;BME280;20720;48.886;9.388;2023-09-19T04:49:57;98104.50;;;20.65;100.00
34482;BME280;20720;48.886;9.388;2023-09-19T04:52:24;98104.19;;;20.97;100.00
34482;BME280;20720;48.886;9.388;2023-09-19T04:54:49;98116.22;;;21.04;100.00
34482;BME280;20720;48.886;9.388;2023-09-19T04:57:14;98120.75;;;21.14;100.00
34482;BME280;20720;48.886;9.388;2023-09-19T04:59:41;98113.22;;;21.26;100.00
34482;BME280;20720;48.886;9.388;2023-09-19T05:02:06;98121.56;;;20.94;100.00
34482;BME280;20720;48.886;9.388;2023-09-19T05:04:33;98115.94;;;21.01;100.00
34482;BME280;20720;48.886;9.388;2023-09-19T05:06:58;98124.78;;;21.06;100.00
34482;BME280;20720;48.886;9.388;2023-09-19T05:09:23;98119.47;;;20.66;100.00
34482;BME280;20720;48.886;9.388;2023-09-19T05:11:49;98118.13;;;20.63;100.00
34482;BME280;20720;48.886;9.388;2023-09-19T05:14:16;98125.31;;;20.78;100.00
34482;BME280;20720;48.886;9.388;2023-09-19T05:16:41;98131.69;;;20.97;100.00
34482;BME280;20720;48.886;9.388;2023-09-19T05:19:07;98133.34;;;20.68;100.00
34482;BME280;20720;48.886;9.388;2023-09-19T05:21:36;98133.31;;;20.78;100.00
34482;BME280;20720;48.886;9.388;2023-09-19T05:24:04;98139.47;;;20.79;100.00
34482;BME280;20720;48.886;9.388;2023-09-19T05:26:31;98142.66;;;21.11;100.00
34482;BME280;20720;48.886;9.388;2023-09-19T05:28:57;98141.84;;;20.95;100.00
34482;BME280;20720;48.886;9.388;2023-09-19T05:31:22;98141.91;;;20.70;100.00
34482;BME280;20720;48.886;9.388;2023-09-19T05:33:48;98151.44;;;21.16;100.00
34482;BME280;20720;48.886;9.388;2023-09-19T05:36:14;98136.53;;;20.50;100.00
34482;BME280;20720;48.886;9.388;2023-09-19T05:38:41;98140.81;;;21.06;100.00
34482;BME280;20720;48.886;9.388;2023-09-19T05:41:08;98146.03;;;21.41;100.00
34482;BME280;20720;48.886;9.388;2023-09-19T05:43:35;98153.19;;;21.56;100.00
34482;BME280;20720;48.886;9.388;2023-09-19T05:46:03;98151.22;;;20.22;100.00
34482;BME280;20720;48.886;9.388;2023-09-19T05:48:28;98158.44;;;20.52;100.00
34482;BME280;20720;48.886;9.388;2023-09-19T05:50:53;98160.75;;;20.03;100.00
34482;BME280;20720;48.886;9.388;2023-09-19T05:53:19;98159.69;;;20.09;100.00
34482;BME280;20720;48.886;9.388;2023-09-19T05:55:44;98162.97;;;19.49;100.00
34482;BME280;20720;48.886;9.388;2023-09-19T05:58:10;98151.03;;;19.15;100.00
34482;BME280;20720;48.886;9.388;2023-09-19T06:00:39;98155.06;;;19.69;100.00
34482;BME280;20720;48.886;9.388;2023-09-19T06:03:06;98169.38;;;19.53;100.00
34482;BME280;20720;48.886;9.388;2023-09-19T06:05:33;98153.56;;;18.90;100.00
34482;BME280;20720;48.886;9.388;2023-09-19T06:07:58;98165.22;;;19.78;100.00
34482;BME280;20720;48.886;9.388;2023-09-19T06:10:32;98166.91;;;19.42;100.00
34482;BME280;20720;48.886;9.388;2023-09-19T06:12:58;98187.22;;;19.48;100.00
34482;BME280;20720;48.886;9.388;2023-09-19T06:15:23;98197.78;;;19.85;100.00
34482;BME280;20720;48.886;9.388;2023-09-19T06:17:51;98204.56;;;19.50;100.00
34482;BME280;20720;48.886;9.388;2023-09-19T06:20:16;98205.84;;;19.43;100.00
34482;BME280;20720;48.886;9.388;2023-09-19T06:22:43;98205.31;;;20.13;100.00
34482;BME280;20720;48.886;9.388;2023-09-19T06:25:13;98208.97;;;19.87;100.00
34482;BME280;20720;48.886;9.388;2023-09-19T06:27:45;98208.91;;;19.25;100.00
34482;BME280;20720;48.886;9.388;2023-09-19T06:30:11;98194.50;;;18.84;100.00
34482;BME280;20720;48.886;9.388;2023-09-19T06:32:42;98193.38;;;19.12;100.00
34482;BME280;20720;48.886;9.388;2023-09-19T06:35:14;98208.16;;;18.34;100.00
34482;BME280;20720;48.886;9.388;2023-09-19T06:37:41;98207.66;;;18.64;100.00
34482;BME280;20720;48.886;9.388;2023-09-19T06:40:10;98223.94;;;19.04;100.00
34482;BME280;20720;48.886;9.388;2023-09-19T06:42:40;98218.25;;;18.91;100.00
34482;BME280;20720;48.886;9.388;2023-09-19T06:45:07;98208.56;;;18.48;100.00
34482;BME280;20720;48.886;9.388;2023-09-19T06:47:32;98216.38;;;18.91;100.00
34482;BME280;20720;48.886;9.388;2023-09-19T06:49:57;98216.31;;;18.49;100.00
34482;BME280;20720;48.886;9.388;2023-09-19T06:52:22;98214.97;;;19.15;100.00
34482;BME280;20720;48.886;9.388;2023-09-19T06:54:48;98232.72;;;19.00;100.00
34482;BME280;20720;48.886;9.388;2023-09-19T06:57:16;98237.81;;;19.43;100.00
34482;BME280;20720;48.886;9.388;2023-09-19T06:59:41;98259.78;;;20.17;100.00
34482;BME280;20720;48.886;9.388;2023-09-19T07:02:06;98257.06;;;20.12;100.00
34482;BME280;20720;48.886;9.388;2023-09-19T07:04:32;98249.22;;;20.57;100.00
34482;BME280;20720;48.886;9.388;2023-09-19T07:06:58;98255.66;;;20.86;100.00
34482;BME280;20720;48.886;9.388;2023-09-19T07:09:23;98267.44;;;21.15;100.00
34482;BME280;20720;48.886;9.388;2023-09-19T07:11:48;98258.28;;;21.67;100.00
34482;BME280;20720;48.886;9.388;2023-09-19T07:14:16;98258.59;;;20.80;100.00
34482;BME280;20720;48.886;9.388;2023-09-19T07:16:41;98265.19;;;21.78;100.00
34482;BME280;20720;48.886;9.388;2023-09-19T07:19:09;98274.94;;;21.23;100.00
34482;BME280;20720;48.886;9.388;2023-09-19T07:21:35;98278.59;;;21.83;100.00
34482;BME280;20720;48.886;9.388;2023-09-19T07:24:04;98288.16;;;22.04;100.00
34482;BME280;20720;48.886;9.388;2023-09-19T07:26:29;98293.59;;;21.59;100.00
34482;BME280;20720;48.886;9.388;2023-09-19T07:28:56;98288.81;;;21.30;100.00
34482;BME280;20720;48.886;9.388;2023-09-19T07:31:22;98282.94;;;21.28;100.00
34482;BME280;20720;48.886;9.388;2023-09-19T07:33:48;98289.59;;;20.96;100.00
34482;BME280;20720;48.886;9.388;2023-09-19T07:36:13;98293.09;;;21.31;100.00
34482;BME280;20720;48.886;9.388;2023-09-19T07:38:40;98299.00;;;21.13;100.00
34482;BME280;20720;48.886;9.388;2023-09-19T07:41:06;98300.56;;;20.89;100.00
34482;BME280;20720;48.886;9.388;2023-09-19T07:43:31;98297.88;;;21.54;100.00
34482;BME280;20720;48.886;9.388;2023-09-19T07:45:57;98297.00;;;21.94;100.00
34482;BME280;20720;48.886;9.388;2023-09-19T07:48:23;98309.66;;;21.08;100.00
34482;BME280;20720;48.886;9.388;2023-09-19T07:50:50;98304.59;;;21.12;100.00
34482;BME280;20720;48.886;9.388;2023-09-19T07:53:16;98300.78;;;20.63;100.00
34482;BME280;20720;48.886;9.388;2023-09-19T07:55:42;98310.47;;;21.29;100.00
34482;BME280;20720;48.886;9.388;2023-09-19T07:58:08;98306.47;;;21.11;100.00
34482;BME280;20720;48.886;9.388;2023-09-19T08:00:34;98311.78;;;22.94;100.00
34482;BME280;20720;48.886;9.388;2023-09-19T08:03:00;98329.19;;;22.48;100.00
34482;BME280;20720;48.886;9.388;2023-09-19T08:05:26;98331.56;;;21.66;100.00
34482;BME280;20720;48.886;9.388;2023-09-19T08:07:51;98335.03;;;21.76;100.00
34482;BME280;20720;48.886;9.388;2023-09-19T08:10:18;98342.28;;;21.45;100.00
34482;BME280;20720;48.886;9.388;2023-09-19T08:12:46;98339.59;;;22.55;100.00
34482;BME280;20720;48.886;9.388;2023-09-19T08:15:19;98349.47;;;21.80;100.00
34482;BME280;20720;48.886;9.388;2023-09-19T08:17:45;98346.03;;;23.02;100.00
34482;BME280;20720;48.886;9.388;2023-09-19T08:20:11;98358.19;;;22.26;100.00
34482;BME280;20720;48.886;9.388;2023-09-19T08:22:52;98361.38;;;22.38;100.00
34482;BME280;20720;48.886;9.388;2023-09-19T08:25:19;98358.69;;;23.35;100.00
34482;BME280;20720;48.886;9.388;2023-09-19T08:27:46;98350.59;;;24.03;100.00
34482;BME280;20720;48.886;9.388;2023-09-19T08:30:20;98362.53;;;24.81;95.87
34482;BME280;20720;48.886;9.388;2023-09-19T08:32:49;98363.78;;;24.89;93.24
34482;BME280;20720;48.886;9.388;2023-09-19T08:35:14;98360.00;;;23.72;95.09
34482;BME280;20720;48.886;9.388;2023-09-19T08:37:40;98354.78;;;24.56;96.05
34482;BME280;20720;48.886;9.388;2023-09-19T08:40:05;98356.22;;;25.09;90.93
34482;BME280;20720;48.886;9.388;2023-09-19T08:42:54;98370.38;;;24.96;86.83
34482;BME280;20720;48.886;9.388;2023-09-19T08:45:23;98372.94;;;24.64;87.40
34482;BME280;20720;48.886;9.388;2023-09-19T08:48:00;98377.19;;;25.63;86.20
34482;BME280;20720;48.886;9.388;2023-09-19T08:50:29;98388.00;;;25.77;78.59
34482;BME280;20720;48.886;9.388;2023-09-19T08:52:56;98389.22;;;24.54;83.58
34482;BME280;20720;48.886;9.388;2023-09-19T08:55:28;98389.66;;;24.14;89.39
34482;BME280;20720;48.886;9.388;2023-09-19T08:58:10;98389.03;;;24.46;85.99
34482;BME280;20720;48.886;9.388;2023-09-19T09:00:36;98400.31;;;24.24;87.01
34482;BME280;20720;48.886;9.388;2023-09-19T09:03:02;98395.53;;;24.40;87.84
34482;BME280;20720;48.886;9.388;2023-09-19T09:05:29;98388.50;;;25.79;82.57
34482;BME280;20720;48.886;9.388;2023-09-19T09:07:55;98396.38;;;26.48;80.45
34482;BME280;20720;48.886;9.388;2023-09-19T09:10:22;98390.97;;;25.06;83.46
34482;BME280;20720;48.886;9.388;2023-09-19T09:12:51;98390.00;;;27.21;77.96
34482;BME280;20720;48.886;9.388;2023-09-19T09:15:19;98388.91;;;25.54;78.83
34482;BME280;20720;48.886;9.388;2023-09-19T09:17:46;98384.28;;;24.38;80.77
34482;BME280;20720;48.886;9.388;2023-09-19T09:20:13;98387.63;;;24.30;80.11
34482;BME280;20720;48.886;9.388;2023-09-19T09:22:38;98396.44;;;24.35;81.08
34482;BME280;20720;48.886;9.388;2023-09-19T09:25:09;98404.59;;;24.25;79.11
34482;BME280;20720;48.886;9.388;2023-09-19T09:27:34;98396.69;;;25.55;77.37
34482;BME280;20720;48.886;9.388;2023-09-19T09:29:59;98403.53;;;24.92;77.93
34482;BME280;20720;48.886;9.388;2023-09-19T09:32:26;98399.81;;;24.88;77.45
34482;BME280;20720;48.886;9.388;2023-09-19T09:34:55;98407.28;;;24.72;73.55
34482;BME280;20720;48.886;9.388;2023-09-19T09:37:21;98414.13;;;24.60;72.38
34482;BME280;20720;48.886;9.388;2023-09-19T09:40:13;98403.16;;;24.09;73.24
34482;BME280;20720;48.886;9.388;2023-09-19T09:42:41;98409.00;;;23.54;75.24
34482;BME280;20720;48.886;9.388;2023-09-19T09:45:15;98396.63;;;24.15;72.87
34482;BME280;20720;48.886;9.388;2023-09-19T09:47:42;98405.16;;;22.82;78.09
34482;BME280;20720;48.886;9.388;2023-09-19T09:50:23;98411.31;;;23.31;77.38
34482;BME280;20720;48.886;9.388;2023-09-19T09:52:54;98408.84;;;25.15;73.79
34482;BME280;20720;48.886;9.388;2023-09-19T09:55:25;98406.31;;;25.05;71.46
34482;BME280;20720;48.886;9.388;2023-09-19T09:58:17;98403.81;;;23.96;74.74
34482;BME280;20720;48.886;9.388;2023-09-19T10:00:56;98399.69;;;25.35;69.10
34482;BME280;20720;48.886;9.388;2023-09-19T10:03:30;98396.06;;;25.45;70.55
34482;BME280;20720;48.886;9.388;2023-09-19T10:05:57;98403.25;;;26.27;64.66
34482;BME280;20720;48.886;9.388;2023-09-19T10:08:23;98396.16;;;26.31;63.50
34482;BME280;20720;48.886;9.388;2023-09-19T10:10:48;98401.69;;;25.94;65.42
34482;BME280;20720;48.886;9.388;2023-09-19T10:13:29;98388.00;;;25.26;68.14
34482;BME280;20720;48.886;9.388;2023-09-19T10:15:56;98396.59;;;25.09;68.06
34482;BME280;20720;48.886;9.388;2023-09-19T10:18:25;98393.50;;;25.35;67.81
34482;BME280;20720;48.886;9.388;2023-09-19T10:20:51;98391.00;;;27.69;61.69
34482;BME280;20720;48.886;9.388;2023-09-19T10:23:21;98389.75;;;26.95;61.23
34482;BME280;20720;48.886;9.388;2023-09-19T10:25:51;98381.72;;;26.81;60.27
34482;BME280;20720;48.886;9.388;2023-09-19T10:28:18;98383.59;;;26.81;59.97
34482;BME280;20720;48.886;9.388;2023-09-19T10:30:48;98385.97;;;26.96;60.38
34482;BME280;20720;48.886;9.388;2023-09-19T10:33:17;98389.31;;;27.15;59.56
34482;BME280;20720;48.886;9.388;2023-09-19T10:35:44;98387.53;;;25.88;60.87
34482;BME280;20720;48.886;9.388;2023-09-19T10:38:11;98393.38;;;26.77;59.17
34482;BME280;20720;48.886;9.388;2023-09-19T10:40:38;98390.41;;;28.33;56.30
34482;BME280;20720;48.886;9.388;2023-09-19T10:43:11;98389.28;;;26.12;57.61
34482;BME280;20720;48.886;9.388;2023-09-19T10:45:38;98391.97;;;26.39;59.01
34482;BME280;20720;48.886;9.388;2023-09-19T10:48:05;98394.63;;;27.07;58.26
34482;BME280;20720;48.886;9.388;2023-09-19T10:50:47;98384.47;;;28.53;51.84
34482;BME280;20720;48.886;9.388;2023-09-19T10:53:14;98390.16;;;27.82;53.71
34482;BME280;20720;48.886;9.388;2023-09-19T10:55:49;98389.66;;;27.80;51.83
34482;BME280;20720;48.886;9.388;2023-09-19T10:58:26;98384.81;;;28.60;52.12
34482;BME280;20720;48.886;9.388;2023-09-19T11:00:55;98391.91;;;29.38;51.09
34482;BME280;20720;48.886;9.388;2023-09-19T11:03:22;98384.41;;;28.06;50.87
34482;BME280;20720;48.886;9.388;2023-09-19T11:06:20;98389.56;;;26.91;55.52
34482;BME280;20720;48.886;9.388;2023-09-19T11:09:02;98385.03;;;29.07;50.74
34482;BME280;20720;48.886;9.388;2023-09-19T11:14:28;98382.56;;;27.04;54.66
34482;BME280;20720;48.886;9.388;2023-09-19T11:25:44;98358.56;;;28.69;48.58
34482;BME280;20720;48.886;9.388;2023-09-19T11:30:46;98360.00;;;29.69;46.48
34482;BME280;20720;48.886;9.388;2023-09-19T11:36:10;98350.94;;;29.83;46.90
34482;BME280;20720;48.886;9.388;2023-09-19T11:43:45;98350.78;;;27.89;52.04
34482;BME280;20720;48.886;9.388;2023-09-19T11:46:11;98351.31;;;28.00;54.07
34482;BME280;20720;48.886;9.388;2023-09-19T11:48:38;98362.38;;;30.64;50.24
34482;BME280;20720;48.886;9.388;2023-09-19T11:51:10;98352.88;;;30.11;50.38
34482;BME280;20720;48.886;9.388;2023-09-19T11:53:41;98342.19;;;27.87;53.79
34482;BME280;20720;48.886;9.388;2023-09-19T11:56:08;98346.22;;;27.46;55.00
34482;BME280;20720;48.886;9.388;2023-09-19T11:58:36;98339.13;;;27.50;58.18
34482;BME280;20720;48.886;9.388;2023-09-19T12:01:04;98341.81;;;28.11;56.00
34482;BME280;20720;48.886;9.388;2023-09-19T12:03:35;98338.34;;;27.14;56.75
34482;BME280;20720;48.886;9.388;2023-09-19T12:06:11;98328.53;;;28.23;55.92
34482;BME280;20720;48.886;9.388;2023-09-19T12:08:39;98338.94;;;27.77;56.71
34482;BME280;20720;48.886;9.388;2023-09-19T12:11:05;98336.19;;;26.39;57.26
34482;BME280;20720;48.886;9.388;2023-09-19T12:13:33;98329.59;;;27.08;57.60
34482;BME280;20720;48.886;9.388;2023-09-19T12:15:59;98332.50;;;26.35;58.37
34482;BME280;20720;48.886;9.388;2023-09-19T12:18:29;98330.03;;;27.46;57.57
34482;BME280;20720;48.886;9.388;2023-09-19T12:20:55;98328.22;;;29.07;53.89
34482;BME280;20720;48.886;9.388;2023-09-19T12:23:21;98329.78;;;27.34;56.48
34482;BME280;20720;48.886;9.388;2023-09-19T12:25:46;98324.13;;;28.44;54.62
34482;BME280;20720;48.886;9.388;2023-09-19T12:28:13;98326.00;;;28.35;54.65
34482;BME280;20720;48.886;9.388;2023-09-19T12:30:39;98314.22;;;29.13;51.18
34482;BME280;20720;48.886;9.388;2023-09-19T12:33:15;98320.66;;;30.47;48.53
34482;BME280;20720;48.886;9.388;2023-09-19T12:35:41;98311.03;;;30.29;49.15
34482;BME280;20720;48.886;9.388;2023-09-19T12:38:08;98311.31;;;28.93;51.38
34482;BME280;20720;48.886;9.388;2023-09-19T12:40:35;98305.72;;;28.80;52.98
34482;BME280;20720;48.886;9.388;2023-09-19T12:43:03;98304.47;;;28.05;53.37
34482;BME280;20720;48.886;9.388;2023-09-19T12:45:32;98310.66;;;27.44;53.06
34482;BME280;20720;48.886;9.388;2023-09-19T12:48:22;98314.97;;;26.87;53.54
34482;BME280;20720;48.886;9.388;2023-09-19T12:51:10;98312.25;;;26.24;55.45
34482;BME280;20720;48.886;9.388;2023-09-19T12:53:45;98307.88;;;25.55;58.30
34482;BME280;20720;48.886;9.388;2023-09-19T12:56:17;98301.22;;;26.48;57.26
34482;BME280;20720;48.886;9.388;2023-09-19T12:58:59;98298.59;;;27.28;56.32
34482;BME280;20720;48.886;9.388;2023-09-19T13:01:28;98300.03;;;27.47;54.85
34482;BME280;20720;48.886;9.388;2023-09-19T13:04:17;98302.00;;;26.75;55.04
34482;BME280;20720;48.886;9.388;2023-09-19T13:06:46;98296.88;;;27.10;56.38
34482;BME280;20720;48.886;9.388;2023-09-19T13:09:14;98294.28;;;26.20;56.99
34482;BME280;20720;48.886;9.388;2023-09-19T13:11:40;98304.13;;;25.83;57.18
34482;BME280;20720;48.886;9.388;2023-09-19T13:14:24;98290.94;;;27.74;53.59
34482;BME280;20720;48.886;9.388;2023-09-19T13:19:57;98292.13;;;27.59;53.04
34482;BME280;20720;48.886;9.388;2023-09-19T13:25:16;98293.50;;;28.18;50.09
34482;BME280;20720;48.886;9.388;2023-09-19T13:27:52;98298.53;;;26.97;52.50
34482;BME280;20720;48.886;9.388;2023-09-19T13:30:20;98289.50;;;27.68;49.09
34482;BME280;20720;48.886;9.388;2023-09-19T13:32:45;98290.16;;;26.98;52.20
34482;BME280;20720;48.886;9.388;2023-09-19T13:35:12;98283.41;;;27.10;52.32